createdAt,value
2022-12-03T08:37:17.582Z,9.63
2022-12-03T08:39:49.938Z,7.03
2022-12-03T08:42:38.471Z,6.90
2022-12-03T08:45:30.594Z,7.28
2022-12-03T08:48:06.084Z,7.03
2022-12-03T08:50:40.161Z,7.47
2022-12-03T08:53:25.312Z,8.60
2022-12-03T08:55:53.578Z,9.50
2022-12-03T08:58:48.405Z,8.98
2022-12-03T09:01:21.289Z,7.67
2022-12-03T09:03:51.834Z,10.83
2022-12-03T09:06:18.852Z,10.73
2022-12-03T09:08:45.687Z,9.90
2022-12-03T09:11:12.981Z,12.93
2022-12-03T09:13:39.785Z,9.03
2022-12-03T09:16:06.844Z,12.37
2022-12-03T09:18:34.396Z,11.57
2022-12-03T09:21:01.305Z,9.27
2022-12-03T09:23:29.234Z,12.43
2022-12-03T09:25:56.029Z,10.70
2022-12-03T09:28:22.867Z,11.60
2022-12-03T09:30:49.761Z,12.93
2022-12-03T09:33:16.582Z,11.23
2022-12-03T09:35:43.369Z,9.60
2022-12-03T09:38:10.194Z,11.53
2022-12-03T09:40:37.076Z,11.83
2022-12-03T09:43:04.363Z,12.73
2022-12-03T09:45:32.526Z,11.50
2022-12-03T09:48:02.892Z,13.53
2022-12-03T09:50:31.085Z,13.53
2022-12-03T09:53:02.883Z,12.40
2022-12-03T09:55:30.436Z,15.43
2022-12-03T09:58:00.875Z,14.27
2022-12-03T10:00:30.183Z,17.00
2022-12-03T10:03:01.665Z,15.57
2022-12-03T10:33:59.477Z,15.93
2022-12-03T10:36:26.962Z,15.90
2022-12-03T10:39:13.778Z,14.00
2022-12-03T10:41:42.180Z,12.97
2022-12-03T10:44:14.724Z,15.60
2022-12-03T10:46:42.293Z,12.50
2022-12-03T10:49:18.496Z,13.73
2022-12-03T10:51:51.700Z,14.47
2022-12-03T10:54:24.369Z,12.93
2022-12-03T10:56:52.851Z,10.20
2022-12-03T10:59:25.429Z,11.60
2022-12-03T11:01:52.914Z,11.23
2022-12-03T11:04:37.714Z,13.87
2022-12-03T11:07:15.679Z,12.17
2022-12-03T11:09:48.417Z,13.03
2022-12-03T11:12:19.209Z,14.07
2022-12-03T11:14:50.507Z,15.43
2022-12-03T11:17:39.412Z,14.87
2022-12-03T11:20:30.074Z,15.65
2022-12-03T11:22:58.591Z,10.77
2022-12-03T11:25:25.647Z,12.57
2022-12-03T11:28:14.570Z,11.17
2022-12-03T11:30:50.850Z,15.27
2022-12-03T11:33:28.038Z,16.48
2022-12-03T11:36:03.936Z,15.57
2022-12-03T11:38:53.241Z,14.93
2022-12-03T11:41:34.988Z,14.53
